Time;durP1;ratioP1;P1;durP2;ratioP2;P2;SDS_P1;SDS_P2;PMS_P1;PMS_P2;Temp;Humidity;BMP_temperature;BMP_pressure;BME280_temperature;BME280_humidity;BME280_pressure;Samples;Min_cycle;Max_cycle;Signal;HPM_P1;HPM_P2
2022/05/20 00:01:37;;;;;;;5.40;2.00;;;24.80;83.00;;;;;;5077054;28;20063;-69
2022/05/20 00:04:03;;;;;;;3.85;1.95;;;24.60;82.90;;;;;;5056238;28;20116;-68
2022/05/20 00:06:29;;;;;;;5.68;2.25;;;24.70;82.60;;;;;;5081160;28;20044;-69
2022/05/20 00:08:55;;;;;;;4.65;2.78;;;24.70;82.80;;;;;;5079059;28;20478;-68
2022/05/20 00:11:20;;;;;;;3.17;1.77;;;24.90;82.90;;;;;;5075804;28;20451;-68
2022/05/20 00:13:46;;;;;;;4.55;2.03;;;24.80;82.80;;;;;;5094077;28;20052;-68
2022/05/20 00:16:12;;;;;;;4.78;2.20;;;24.70;82.80;;;;;;5091042;28;20048;-68
2022/05/20 00:18:38;;;;;;;4.50;2.10;;;24.80;82.90;;;;;;5071875;28;20052;-68
2022/05/20 00:21:04;;;;;;;4.13;1.98;;;24.60;82.70;;;;;;5094049;28;20119;-68
2022/05/20 00:23:31;;;;;;;6.15;2.20;;;24.80;83.10;;;;;;5093653;28;20056;-67
2022/05/20 00:25:56;;;;;;;3.88;1.88;;;24.70;82.80;;;;;;5094024;28;20079;-68
2022/05/20 00:28:28;;;;;;;3.83;1.95;;;24.50;82.50;;;;;;5091442;28;20090;-63
2022/05/20 00:31:00;;;;;;;3.28;1.90;;;24.90;82.70;;;;;;5058126;28;20049;-64
2022/05/20 00:33:27;;;;;;;5.40;2.05;;;24.40;82.70;;;;;;5078608;28;20052;-64
2022/05/20 00:35:54;;;;;;;4.63;2.10;;;24.80;82.10;;;;;;5094967;28;20054;-63
2022/05/20 00:38:20;;;;;;;4.07;2.13;;;24.50;82.20;;;;;;5112492;28;20079;-64
2022/05/20 00:40:47;;;;;;;6.28;2.00;;;24.50;82.30;;;;;;5080809;28;20058;-69
2022/05/20 00:43:26;;;;;;;4.07;1.70;;;24.70;82.50;;;;;;5092232;28;20082;-69
2022/05/20 00:45:53;;;;;;;4.55;2.00;;;24.80;81.10;;;;;;5060672;28;20052;-69
2022/05/20 00:48:18;;;;;;;4.60;2.15;;;24.40;82.30;;;;;;5092487;28;20044;-68
2022/05/20 00:50:48;;;;;;;7.93;2.25;;;24.60;82.10;;;;;;5068164;28;20475;-68
2022/05/20 00:53:14;;;;;;;5.03;2.17;;;24.60;82.50;;;;;;5075493;28;20055;-69
2022/05/20 00:55:40;;;;;;;4.38;2.00;;;24.50;81.90;;;;;;5092406;28;20123;-69
2022/05/20 00:58:08;;;;;;;3.83;2.15;;;24.30;82.00;;;;;;5092012;28;20054;-69
2022/05/20 01:00:39;;;;;;;4.45;2.05;;;24.50;82.30;;;;;;5084879;28;20069;-69
2022/05/20 01:03:06;;;;;;;6.50;2.28;;;24.40;82.10;;;;;;5128946;28;20431;-68
2022/05/20 01:05:38;;;;;;;4.38;2.13;;;24.40;82.20;;;;;;5115831;28;20048;-68
2022/05/20 01:08:04;;;;;;;4.82;2.10;;;24.20;82.10;;;;;;5068337;28;20043;-68
2022/05/20 01:10:30;;;;;;;4.53;2.20;;;24.40;82.10;;;;;;5061931;28;20050;-68
2022/05/20 01:12:56;;;;;;;6.93;2.40;;;24.60;82.20;;;;;;5077368;28;20047;-68
2022/05/20 01:15:22;;;;;;;4.95;2.10;;;24.80;81.90;;;;;;5102310;28;20036;-68
2022/05/20 01:17:52;;;;;;;6.55;2.25;;;24.40;81.80;;;;;;5075046;28;20048;-68
2022/05/20 01:20:23;;;;;;;3.65;1.92;;;24.30;82.10;;;;;;5092165;28;20040;-67
2022/05/20 01:23:01;;;;;;;4.85;2.10;;;24.40;82.10;;;;;;5077873;28;20048;-68
2022/05/20 01:25:28;;;;;;;6.63;2.20;;;24.30;80.90;;;;;;5088733;28;20054;-67
2022/05/20 01:27:54;;;;;;;5.20;2.22;;;24.20;81.80;;;;;;5045650;28;20040;-68
2022/05/20 01:30:22;;;;;;;5.15;1.98;;;24.10;81.40;;;;;;5062562;28;20051;-68
2022/05/20 01:32:48;;;;;;;4.65;2.13;;;24.40;81.90;;;;;;5075253;28;20060;-67
2022/05/20 01:35:17;;;;;;;4.38;1.90;;;24.30;81.30;;;;;;5062985;28;20062;-68
2022/05/20 01:37:43;;;;;;;7.30;2.60;;;24.20;81.60;;;;;;5091416;28;20080;-68
2022/05/20 01:40:11;;;;;;;4.70;2.22;;;24.40;81.50;;;;;;5078243;28;20075;-68
2022/05/20 01:42:36;;;;;;;4.85;2.25;;;24.30;81.00;;;;;;5094753;28;20562;-68
2022/05/20 01:45:11;;;;;;;5.15;2.17;;;24.30;84.40;;;;;;5096722;28;20048;-68
2022/05/20 01:47:50;;;;;;;7.22;2.22;;;24.40;80.20;;;;;;5090939;28;20494;-67
2022/05/20 01:50:19;;;;;;;4.15;2.08;;;24.20;80.10;;;;;;5093134;28;20055;-68
2022/05/20 01:53:05;;;;;;;5.43;2.25;;;24.10;79.70;;;;;;5078392;28;20062;-68
2022/05/20 01:55:37;;;;;;;5.50;2.80;;;24.20;79.90;;;;;;5078717;28;20047;-68
2022/05/20 01:58:15;;;;;;;4.97;2.10;;;23.90;79.60;;;;;;5095586;28;20043;-68
2022/05/20 02:00:41;;;;;;;6.18;2.53;;;24.20;79.90;;;;;;5043014;28;20055;-68
2022/05/20 02:03:30;;;;;;;6.03;2.40;;;24.10;81.00;;;;;;5078526;28;20060;-68
2022/05/20 02:06:03;;;;;;;6.35;2.72;;;24.20;80.00;;;;;;5061824;28;20397;-68
2022/05/20 02:08:33;;;;;;;4.43;2.38;;;24.20;81.30;;;;;;5076948;28;20083;-68
2022/05/20 02:11:20;;;;;;;4.75;2.35;;;23.80;79.30;;;;;;5089460;28;20041;-68
2022/05/20 02:13:58;;;;;;;5.85;2.72;;;24.20;81.30;;;;;;5058058;28;20048;-68
2022/05/20 02:16:30;;;;;;;6.47;3.00;;;24.00;79.40;;;;;;5086176;28;20401;-68
2022/05/20 02:19:06;;;;;;;5.55;3.08;;;24.30;81.10;;;;;;5078030;28;20044;-68
2022/05/20 02:21:32;;;;;;;5.05;2.40;;;24.10;81.00;;;;;;5094112;28;20396;-67
2022/05/20 02:24:00;;;;;;;5.80;2.80;;;24.00;80.80;;;;;;5051148;28;20189;-68
2022/05/20 02:26:28;;;;;;;4.90;2.60;;;24.00;80.80;;;;;;5081064;28;20046;-68
2022/05/20 02:29:02;;;;;;;5.10;2.90;;;24.10;80.80;;;;;;5078019;28;20097;-68
2022/05/20 02:31:37;;;;;;;5.18;2.75;;;23.90;79.30;;;;;;5072688;28;20055;-68
2022/05/20 02:34:03;;;;;;;6.93;3.00;;;24.10;80.90;;;;;;5073970;28;20121;-68
2022/05/20 02:36:33;;;;;;;8.93;3.28;;;24.00;80.50;;;;;;5072598;28;20044;-68
2022/05/20 02:38:59;;;;;;;5.18;2.90;;;23.90;80.60;;;;;;5075262;28;20048;-68
2022/05/20 02:41:25;;;;;;;5.93;2.90;;;24.10;80.30;;;;;;5096439;28;20051;-68
2022/05/20 02:43:51;;;;;;;5.25;2.88;;;24.00;80.30;;;;;;5075470;28;20044;-68
2022/05/20 02:46:17;;;;;;;6.10;3.10;;;24.00;80.30;;;;;;5094452;28;20097;-68
2022/05/20 02:48:43;;;;;;;5.47;3.03;;;23.90;80.40;;;;;;5077476;28;20044;-68
2022/05/20 02:51:09;;;;;;;5.97;3.03;;;23.90;80.20;;;;;;5062584;28;20056;-68
2022/05/20 02:53:35;;;;;;;5.43;2.75;;;23.90;80.30;;;;;;5060188;28;20052;-67
2022/05/20 02:56:03;;;;;;;4.60;2.67;;;23.80;80.30;;;;;;5074645;28;20047;-68
2022/05/20 03:04:18;;;;;;;7.68;3.03;;;23.80;80.30;;;;;;5060447;28;20093;-68
2022/05/20 03:06:49;;;;;;;5.30;2.80;;;23.90;80.00;;;;;;5073103;28;20048;-68
2022/05/20 03:09:17;;;;;;;5.35;2.90;;;23.90;80.40;;;;;;5039790;28;20474;-67
2022/05/20 03:11:43;;;;;;;6.07;3.00;;;23.60;80.20;;;;;;5037652;28;20044;-68
2022/05/20 03:14:10;;;;;;;5.70;2.90;;;23.90;80.10;;;;;;5055339;28;20048;-68
2022/05/20 03:16:37;;;;;;;5.28;2.50;;;23.90;80.30;;;;;;5082023;28;20456;-68
2022/05/20 03:19:04;;;;;;;5.82;3.08;;;23.70;80.10;;;;;;5075115;28;20043;-68
2022/05/20 03:21:30;;;;;;;5.72;3.20;;;23.70;79.90;;;;;;5076055;28;20083;-68
2022/05/20 03:23:59;;;;;;;6.68;3.42;;;23.80;80.10;;;;;;5064481;28;20076;-68
2022/05/20 03:26:24;;;;;;;6.15;3.05;;;23.90;79.90;;;;;;5056906;28;20530;-68
2022/05/20 03:28:50;;;;;;;5.82;2.83;;;23.60;79.90;;;;;;5039234;28;20096;-68
2022/05/20 03:31:16;;;;;;;6.45;3.60;;;23.80;79.70;;;;;;5053759;28;20051;-68
2022/05/20 03:33:42;;;;;;;6.13;3.40;;;23.80;79.90;;;;;;5054929;28;20544;-68
2022/05/20 03:36:08;;;;;;;5.03;2.78;;;23.90;79.90;;;;;;5057685;28;20052;-68
2022/05/20 03:38:35;;;;;;;6.47;3.15;;;23.60;79.80;;;;;;5071859;28;20051;-68
2022/05/20 03:41:01;;;;;;;4.30;2.70;;;23.70;79.80;;;;;;5062260;28;20456;-68
2022/05/20 03:43:26;;;;;;;5.75;3.15;;;23.60;79.90;;;;;;5073549;28;20120;-68
2022/05/20 03:45:53;;;;;;;5.35;2.80;;;23.70;79.70;;;;;;5076495;28;20044;-67
2022/05/20 03:48:19;;;;;;;6.93;2.97;;;23.70;79.90;;;;;;5056486;28;20037;-68
2022/05/20 03:50:45;;;;;;;4.57;2.83;;;23.90;79.60;;;;;;5063797;28;20135;-68
2022/05/20 03:53:10;;;;;;;7.63;3.33;;;23.60;79.60;;;;;;5093007;28;20131;-68
2022/05/20 03:55:36;;;;;;;5.20;2.75;;;23.40;79.30;;;;;;5086693;28;20044;-68
2022/05/20 03:58:02;;;;;;;5.70;3.13;;;23.40;79.30;;;;;;5064259;28;20104;-68
2022/05/20 04:00:28;;;;;;;4.88;2.92;;;23.50;79.20;;;;;;5074852;28;20133;-68
2022/05/20 04:02:54;;;;;;;6.07;2.95;;;23.60;79.60;;;;;;5056275;28;20131;-67
2022/05/20 04:05:19;;;;;;;4.70;2.67;;;23.50;79.20;;;;;;5073835;28;20037;-68
2022/05/20 04:07:45;;;;;;;5.65;2.63;;;23.60;79.20;;;;;;5093025;28;20044;-68
2022/05/20 04:10:11;;;;;;;4.85;2.55;;;23.70;79.30;;;;;;5055540;28;20504;-67
2022/05/20 04:12:40;;;;;;;5.75;2.70;;;23.70;79.50;;;;;;5073860;28;20482;-68
2022/05/20 04:15:08;;;;;;;7.20;2.72;;;23.60;79.40;;;;;;5057086;28;20510;-67
2022/05/20 04:17:34;;;;;;;5.05;2.40;;;23.90;79.40;;;;;;5084100;28;20044;-68
2022/05/20 04:19:59;;;;;;;5.22;2.65;;;23.70;79.20;;;;;;5087169;28;20431;-68
2022/05/20 04:22:30;;;;;;;6.47;3.13;;;23.80;79.20;;;;;;5055575;28;20090;-67
2022/05/20 04:24:56;;;;;;;5.22;2.85;;;24.50;79.80;;;;;;5075605;28;20044;-67
2022/05/20 04:27:22;;;;;;;5.55;3.35;;;23.70;79.30;;;;;;5054771;28;20044;-67
2022/05/20 04:29:47;;;;;;;5.72;3.17;;;23.70;79.00;;;;;;5072768;28;20485;-68
2022/05/20 04:32:13;;;;;;;6.35;2.78;;;23.70;78.90;;;;;;5081917;28;20108;-68
2022/05/20 04:34:39;;;;;;;5.60;3.10;;;23.70;78.60;;;;;;5092689;28;20177;-68
2022/05/20 04:37:05;;;;;;;4.80;2.55;;;23.60;78.80;;;;;;5092333;28;20047;-68
2022/05/20 04:39:31;;;;;;;6.10;2.70;;;23.70;78.80;;;;;;5076302;28;20043;-67
2022/05/20 04:47:28;;;;;;;8.27;2.67;;;23.80;78.80;;;;;;5057715;28;20067;-68
2022/05/20 04:49:54;;;;;;;5.43;2.97;;;23.90;78.90;;;;;;5069290;28;20080;-68
2022/05/20 04:52:20;;;;;;;5.05;3.08;;;23.90;78.70;;;;;;5036142;28;20091;-67
2022/05/20 04:54:55;;;;;;;7.68;3.10;;;23.80;78.40;;;;;;5071106;28;20080;-68
2022/05/20 04:57:31;;;;;;;5.32;2.72;;;24.10;77.80;;;;;;5054342;28;20055;-68
2022/05/20 05:00:00;;;;;;;4.85;3.00;;;24.10;77.20;;;;;;5071666;28;20575;-67
2022/05/20 05:02:26;;;;;;;7.03;3.30;;;24.10;81.60;;;;;;5056413;28;20131;-66
2022/05/20 05:04:52;;;;;;;7.60;2.95;;;24.00;78.20;;;;;;5057982;28;20056;-67
2022/05/20 05:07:18;;;;;;;5.00;2.83;;;24.10;78.20;;;;;;5056470;28;20576;-66
2022/05/20 05:09:44;;;;;;;5.78;3.15;;;24.50;78.10;;;;;;5075585;28;20075;-69
2022/05/20 05:12:11;;;;;;;6.65;3.15;;;24.60;78.10;;;;;;5074850;28;20147;-70
2022/05/20 05:14:38;;;;;;;5.78;2.78;;;24.70;77.60;;;;;;5055785;28;20048;-69
2022/05/20 05:17:07;;;;;;;5.63;2.63;;;25.10;77.60;;;;;;5074797;28;20455;-69
2022/05/20 05:19:35;;;;;;;5.43;2.65;;;25.00;77.50;;;;;;5041607;28;20052;-68
2022/05/20 05:22:01;;;;;;;4.18;2.10;;;25.00;77.10;;;;;;5073751;28;20155;-65
2022/05/20 05:24:27;;;;;;;4.47;2.35;;;25.10;76.60;;;;;;5055838;28;20624;-67
2022/05/20 05:26:53;;;;;;;5.18;2.35;;;25.50;76.60;;;;;;5077412;28;20048;-67
2022/05/20 05:29:19;;;;;;;6.63;2.30;;;25.60;76.50;;;;;;5076705;28;20137;-67
2022/05/20 05:31:44;;;;;;;5.20;2.22;;;25.40;76.10;;;;;;5062311;28;20060;-68
2022/05/20 05:34:10;;;;;;;5.78;2.50;;;25.50;76.00;;;;;;5076888;28;20044;-67
2022/05/20 05:36:36;;;;;;;6.75;2.60;;;25.50;75.70;;;;;;5094431;28;20051;-67
2022/05/20 05:39:02;;;;;;;5.47;2.40;;;25.80;76.10;;;;;;5096909;28;20111;-66
2022/05/20 05:41:28;;;;;;;4.57;2.42;;;26.00;75.90;;;;;;5079220;28;20135;-67
2022/05/20 05:43:54;;;;;;;7.75;3.08;;;25.80;75.80;;;;;;5064428;28;20131;-67
2022/05/20 05:46:20;;;;;;;5.40;2.83;;;26.00;75.80;;;;;;5095606;28;20086;-67
2022/05/20 05:48:45;;;;;;;5.25;2.70;;;26.10;75.70;;;;;;5095482;28;20048;-67
2022/05/20 05:51:11;;;;;;;6.45;3.00;;;26.10;75.70;;;;;;5095427;28;20046;-68
2022/05/20 05:53:37;;;;;;;5.95;2.65;;;26.40;75.80;;;;;;5076840;28;20091;-64
2022/05/20 05:56:05;;;;;;;6.28;3.00;;;26.30;75.30;;;;;;5079677;28;20174;-65
2022/05/20 05:58:31;;;;;;;4.70;2.45;;;26.30;75.00;;;;;;5076481;28;20055;-69
2022/05/20 06:00:57;;;;;;;5.82;2.75;;;26.50;75.20;;;;;;5073256;28;20040;-69
2022/05/20 06:03:23;;;;;;;4.97;2.50;;;26.30;75.00;;;;;;5075230;28;20127;-68
2022/05/20 06:05:49;;;;;;;5.70;2.55;;;26.50;74.90;;;;;;5082509;28;20040;-69
2022/05/20 06:08:16;;;;;;;5.53;2.70;;;26.40;75.40;;;;;;5095136;28;20561;-69
2022/05/20 06:10:42;;;;;;;6.75;3.10;;;26.50;75.20;;;;;;5094586;28;20494;-69
2022/05/20 06:13:08;;;;;;;5.47;3.03;;;26.50;75.10;;;;;;5076432;28;20078;-69
2022/05/20 06:15:34;;;;;;;5.28;2.60;;;26.50;74.90;;;;;;5059835;28;20394;-68
2022/05/20 06:18:00;;;;;;;6.32;2.78;;;26.70;75.30;;;;;;5087441;28;20036;-69
2022/05/20 06:20:26;;;;;;;5.28;2.65;;;26.40;75.00;;;;;;5075813;28;20587;-68
2022/05/20 06:22:52;;;;;;;7.13;3.05;;;26.40;75.20;;;;;;5074552;28;20524;-69
2022/05/20 06:25:18;;;;;;;4.63;2.50;;;25.30;74.30;;;;;;5079210;28;20066;-71
2022/05/20 06:27:45;;;;;;;7.00;2.75;;;26.60;76.00;;;;;;5071733;28;20055;-71
2022/05/20 06:30:13;;;;;;;5.82;3.08;;;26.50;75.40;;;;;;5092158;28;20470;-71
2022/05/20 06:32:39;;;;;;;6.18;2.80;;;26.30;75.20;;;;;;5091182;28;20120;-71
2022/05/20 06:40:39;;;;;;;7.20;2.72;;;26.10;75.80;;;;;;5116298;28;20063;-70
2022/05/20 06:43:05;;;;;;;5.60;2.60;;;25.90;75.60;;;;;;5132112;27;20047;-70
2022/05/20 06:45:31;;;;;;;5.40;2.60;;;26.20;75.40;;;;;;5116292;28;20036;-70
2022/05/20 06:47:57;;;;;;;9.45;4.70;;;26.10;75.40;;;;;;5123386;27;20051;-72
2022/05/20 06:50:22;;;;;;;15.13;4.53;;;26.40;75.00;;;;;;5113965;28;20051;-71
2022/05/20 06:52:48;;;;;;;10.32;3.70;;;26.50;74.40;;;;;;5097690;28;20044;-71
2022/05/20 06:55:14;;;;;;;11.15;3.65;;;26.40;74.30;;;;;;5116934;28;20464;-70
2022/05/20 06:57:40;;;;;;;7.40;2.97;;;26.10;74.80;;;;;;5089311;28;20051;-62
2022/05/20 07:00:11;;;;;;;6.70;3.00;;;26.10;74.30;;;;;;5069002;28;20043;-70
2022/05/20 07:02:38;;;;;;;5.13;2.70;;;26.10;73.10;;;;;;5115831;28;20415;-69
2022/05/20 07:05:04;;;;;;;6.05;2.63;;;26.70;75.20;;;;;;5089312;28;20051;-70
2022/05/20 07:07:31;;;;;;;5.65;3.00;;;26.40;74.40;;;;;;5096498;28;20047;-71
2022/05/20 07:09:57;;;;;;;6.15;2.70;;;26.40;74.40;;;;;;5113600;28;20043;-71
2022/05/20 07:12:22;;;;;;;5.88;2.80;;;26.50;74.80;;;;;;5085053;28;20044;-71
2022/05/20 07:14:48;;;;;;;6.32;2.75;;;26.60;74.50;;;;;;5109229;28;20493;-71
2022/05/20 07:17:18;;;;;;;6.45;2.95;;;26.60;74.70;;;;;;5115214;28;20048;-71
2022/05/20 07:19:43;;;;;;;9.07;3.03;;;26.50;74.70;;;;;;5114780;27;20044;-71
2022/05/20 07:22:09;;;;;;;5.35;2.70;;;26.80;74.30;;;;;;5095710;28;20496;-71
2022/05/20 07:24:37;;;;;;;6.93;2.75;;;26.50;74.10;;;;;;5115083;28;20075;-71
2022/05/20 07:27:03;;;;;;;6.78;2.70;;;26.80;74.40;;;;;;5131155;27;20047;-71
2022/05/20 07:29:29;;;;;;;6.28;3.28;;;26.90;74.00;;;;;;5110866;28;20044;-71
2022/05/20 07:31:55;;;;;;;10.13;3.30;;;26.80;74.00;;;;;;5089434;28;20083;-71
2022/05/20 07:34:20;;;;;;;6.07;2.63;;;26.80;74.40;;;;;;5094855;28;20087;-70
2022/05/20 07:36:46;;;;;;;5.35;3.10;;;26.80;74.20;;;;;;5095707;28;20396;-70
2022/05/20 07:39:12;;;;;;;6.03;3.00;;;26.80;74.40;;;;;;5086129;28;20419;-71
2022/05/20 07:41:38;;;;;;;7.53;3.15;;;26.70;73.70;;;;;;5071217;28;20051;-71
2022/05/20 07:44:04;;;;;;;5.05;2.75;;;26.70;74.20;;;;;;5096827;28;20040;-71
2022/05/20 07:46:30;;;;;;;7.97;3.20;;;26.90;73.90;;;;;;5117894;27;20043;-71
2022/05/20 07:48:56;;;;;;;7.13;3.35;;;26.70;73.90;;;;;;5076581;28;20048;-71
2022/05/20 07:51:23;;;;;;;7.10;2.85;;;26.70;73.50;;;;;;5030492;28;20503;-66
2022/05/20 07:53:56;;;;;;;8.43;3.28;;;27.20;73.90;;;;;;5023454;28;20053;-70
2022/05/20 07:56:23;;;;;;;;;;;27.00;72.50;;;;;;5020497;28;20041;-67
2022/05/20 07:58:58;;;;;;;6.20;2.85;;;27.20;73.20;;;;;;5068024;28;20027;-65
2022/05/20 08:01:27;;;;;;;10.68;3.60;;;27.10;72.50;;;;;;5056040;28;20044;-71
2022/05/20 08:06:50;;;;;;;6.90;3.42;;;27.00;72.30;;;;;;5098769;28;20120;-71
2022/05/20 08:09:16;;;;;;;9.02;3.58;;;27.00;73.80;;;;;;5099998;28;20094;-71
2022/05/20 08:11:41;;;;;;;8.38;3.58;;;27.00;73.30;;;;;;5072631;28;20131;-71
2022/05/20 08:14:07;;;;;;;11.07;3.83;;;27.00;73.40;;;;;;5073473;28;20084;-72
2022/05/20 08:16:33;;;;;;;11.27;3.85;;;27.10;73.20;;;;;;5071357;28;20049;-72
2022/05/20 08:18:59;;;;;;;9.18;3.58;;;26.80;73.00;;;;;;5071821;28;20063;-70
2022/05/20 08:21:24;;;;;;;7.63;3.40;;;27.10;72.90;;;;;;5073047;28;20402;-71
2022/05/20 08:23:50;;;;;;;10.15;3.63;;;27.10;73.00;;;;;;5105434;28;20432;-63
2022/05/20 08:26:18;;;;;;;8.85;3.55;;;27.00;72.80;;;;;;5072604;28;20486;-63
2022/05/20 08:28:45;;;;;;;9.60;3.63;;;27.30;73.40;;;;;;5072179;28;20406;-65
2022/05/20 08:31:11;;;;;;;9.80;3.63;;;26.90;73.30;;;;;;5088592;28;20044;-63
2022/05/20 08:33:37;;;;;;;9.20;3.38;;;27.00;73.20;;;;;;5073281;28;20098;-63
2022/05/20 08:36:03;;;;;;;10.57;3.13;;;26.80;72.80;;;;;;5053341;28;20040;-64
2022/05/20 08:38:30;;;;;;;8.00;3.22;;;27.00;72.70;;;;;;5105516;28;20044;-65
2022/05/20 08:40:57;;;;;;;10.60;3.08;;;26.90;73.20;;;;;;5077468;28;20040;-63
2022/05/20 08:43:26;;;;;;;19.73;4.72;;;27.00;73.00;;;;;;5086086;28;20073;-65
2022/05/20 08:45:51;;;;;;;12.45;3.30;;;27.20;72.90;;;;;;5070820;28;20056;-65
2022/05/20 08:48:18;;;;;;;7.03;2.50;;;27.10;72.20;;;;;;5071809;28;20058;-63
2022/05/20 08:50:54;;;;;;;10.13;2.70;;;26.80;72.30;;;;;;5070067;28;20040;-72
2022/05/20 08:53:29;;;;;;;10.20;3.42;;;26.70;72.40;;;;;;5084504;28;20494;-62
2022/05/20 08:56:01;;;;;;;9.98;3.05;;;26.70;70.90;;;;;;5085666;28;20398;-72
2022/05/20 08:58:27;;;;;;;6.60;2.78;;;26.80;72.30;;;;;;5051282;28;20053;-72
2022/05/20 09:00:52;;;;;;;5.43;2.78;;;25.70;71.10;;;;;;5077464;28;20048;-72
2022/05/20 09:03:18;;;;;;;6.38;2.72;;;26.50;72.00;;;;;;5088573;28;20072;-62
2022/05/20 09:05:44;;;;;;;7.55;3.15;;;26.20;71.80;;;;;;5072732;28;20119;-63
2022/05/20 09:08:29;;;;;;;5.90;2.92;;;26.30;72.10;;;;;;5088089;28;20047;-73
2022/05/20 09:10:58;;;;;;;8.48;3.15;;;26.40;72.40;;;;;;5071792;28;20040;-72
2022/05/20 09:15:43;;;;;;;5.15;2.45;;;26.30;70.90;;;;;;5088520;28;20044;-72
2022/05/20 09:16:15;;;;;;;5.47;2.60;;;26.40;72.40;;;;;;5084832;28;20051;-63
2022/05/20 09:18:42;;;;;;;7.05;3.05;;;26.60;72.60;;;;;;5071679;28;20493;-63
2022/05/20 09:21:15;;;;;;;8.60;2.72;;;26.50;72.50;;;;;;5073006;28;20100;-63
2022/05/20 09:23:52;;;;;;;6.20;2.70;;;26.40;72.50;;;;;;5089427;28;20044;-63
2022/05/20 09:26:22;;;;;;;6.93;2.50;;;26.30;72.50;;;;;;5071422;28;20056;-63
2022/05/20 09:28:56;;;;;;;4.95;2.33;;;26.20;72.40;;;;;;5070743;28;20048;-63
2022/05/20 09:31:51;;;;;;;6.88;2.40;;;26.50;72.60;;;;;;5070398;28;20063;-63
2022/05/20 09:34:26;;;;;;;6.45;2.38;;;26.50;70.90;;;;;;5085986;28;20055;-63
2022/05/20 09:37:00;;;;;;;6.97;2.70;;;26.50;72.20;;;;;;5072666;28;20128;-62
2022/05/20 09:39:31;;;;;;;7.53;3.10;;;26.50;72.60;;;;;;5058274;28;20041;-63
2022/05/20 09:41:58;;;;;;;6.63;2.25;;;26.30;72.30;;;;;;5055687;28;20390;-63
2022/05/20 09:44:33;;;;;;;7.75;2.40;;;26.70;72.60;;;;;;5038313;28;20083;-62
2022/05/20 09:47:01;;;;;;;6.32;2.47;;;26.40;72.10;;;;;;5024993;28;20405;-62
2022/05/20 09:49:42;;;;;;;6.03;2.50;;;26.50;72.10;;;;;;5041732;28;20056;-62
2022/05/20 09:52:35;;;;;;;8.77;3.10;;;26.40;70.70;;;;;;5073613;28;20048;-63
2022/05/20 09:55:03;;;;;;;7.22;3.25;;;26.40;72.10;;;;;;5052990;28;20091;-69
2022/05/20 09:57:40;;;;;;;6.88;3.08;;;26.20;71.80;;;;;;5041937;28;20048;-69
2022/05/20 10:00:09;;;;;;;6.28;2.60;;;26.40;72.10;;;;;;5041795;28;20052;-70
2022/05/20 10:02:42;;;;;;;7.63;3.17;;;26.40;71.70;;;;;;5058223;28;20102;-70
2022/05/20 10:05:13;;;;;;;6.82;3.15;;;26.20;71.80;;;;;;5058804;28;20040;-64
2022/05/20 10:08:02;;;;;;;8.65;2.88;;;26.00;69.90;;;;;;5107538;28;20051;-65
2022/05/20 10:10:35;;;;;;;6.55;3.05;;;26.10;69.80;;;;;;5058620;28;20524;-63
2022/05/20 10:13:02;;;;;;;5.93;2.83;;;26.10;71.30;;;;;;5061618;28;20080;-63
2022/05/20 10:15:33;;;;;;;5.43;3.13;;;25.90;71.20;;;;;;5074726;28;20478;-63
2022/05/20 10:18:10;;;;;;;8.32;3.50;;;25.90;71.40;;;;;;5106805;28;20048;-66
2022/05/20 10:21:12;;;;;;;5.72;3.10;;;26.10;70.20;;;;;;5070132;28;20078;-70
2022/05/20 10:23:39;;;;;;;6.13;3.10;;;26.10;70.10;;;;;;5053729;28;20522;-63
2022/05/20 10:26:38;;;;;;;6.55;3.20;;;26.00;71.00;;;;;;5020442;28;20053;-65
2022/05/20 10:32:34;;;;;;;7.75;3.45;;;26.10;70.00;;;;;;5018723;28;20061;-69
2022/05/20 10:35:02;;;;;;;13.48;3.83;;;26.10;71.40;;;;;;5039518;28;20060;-68
2022/05/20 10:37:47;;;;;;;14.55;4.72;;;26.00;71.20;;;;;;5037394;28;20413;-69
2022/05/20 10:40:38;;;;;;;8.48;4.13;;;26.20;71.30;;;;;;5052991;28;20168;-68
2022/05/20 10:43:04;;;;;;;8.45;4.65;;;26.10;71.10;;;;;;5013649;28;20046;-63
2022/05/20 10:48:49;;;;;;;7.40;4.18;;;25.70;69.30;;;;;;5001211;28;20049;-62
2022/05/20 10:51:21;;;;;;;7.28;3.80;;;25.80;69.10;;;;;;5012631;28;20046;-63
2022/05/20 10:53:52;;;;;;;9.73;4.43;;;25.60;70.40;;;;;;4996680;28;20138;-63
2022/05/20 10:56:18;;;;;;;18.95;5.22;;;25.70;70.70;;;;;;5013397;28;20077;-63
2022/05/20 10:58:54;;;;;;;7.90;4.57;;;25.70;70.40;;;;;;4996718;28;20201;-64
2022/05/20 11:01:31;;;;;;;9.27;4.00;;;25.40;69.10;;;;;;5052667;28;20048;-64
2022/05/20 11:04:26;;;;;;;8.07;4.43;;;25.40;69.40;;;;;;5052038;28;20048;-63
2022/05/20 11:07:10;;;;;;;6.07;3.90;;;25.70;69.50;;;;;;5001847;28;20045;-63
2022/05/20 11:09:50;;;;;;;6.97;4.45;;;25.40;69.30;;;;;;5017268;28;20522;-65
2022/05/20 11:12:41;;;;;;;6.45;4.22;;;25.40;69.20;;;;;;5022737;28;20045;-70
2022/05/20 11:15:17;;;;;;;6.93;4.25;;;25.60;69.40;;;;;;4994039;28;20500;-70
2022/05/20 11:17:49;;;;;;;7.05;4.53;;;25.70;69.20;;;;;;5012854;28;20509;-70
2022/05/20 11:20:33;;;;;;;8.20;4.07;;;25.60;69.00;;;;;;5024414;28;20427;-69
2022/05/20 11:23:07;;;;;;;8.65;5.18;;;25.50;69.30;;;;;;4999316;28;20103;-65
2022/05/20 11:25:33;;;;;;;7.30;4.60;;;25.40;69.50;;;;;;5028101;28;20100;-62
2022/05/20 11:28:12;;;;;;;7.70;4.63;;;25.80;70.50;;;;;;5032412;28;20045;-63
2022/05/20 11:31:10;;;;;;;8.73;4.75;;;25.70;70.90;;;;;;5016216;28;20481;-63
2022/05/20 11:33:45;;;;;;;6.93;4.53;;;25.30;68.80;;;;;;5010890;28;20589;-63
2022/05/20 11:36:30;;;;;;;8.88;5.13;;;25.60;69.40;;;;;;5022862;28;20492;-62
2022/05/20 11:39:26;;;;;;;7.95;4.45;;;25.50;70.90;;;;;;5004227;28;20140;-69
2022/05/20 11:42:33;;;;;;;8.73;4.90;;;25.70;69.50;;;;;;4988579;28;20043;-68
2022/05/20 11:45:11;;;;;;;8.40;4.47;;;25.70;69.80;;;;;;4976885;28;20083;-69
2022/05/20 11:47:37;;;;;;;7.38;3.80;;;25.50;69.10;;;;;;5000606;28;20050;-70
2022/05/20 11:50:21;;;;;;;6.38;3.90;;;25.70;70.20;;;;;;4975456;28;20051;-65
2022/05/20 11:52:57;;;;;;;7.43;4.07;;;25.50;69.10;;;;;;5009148;28;20060;-63
2022/05/20 11:55:36;;;;;;;7.38;4.03;;;25.60;70.50;;;;;;5005623;28;20045;-70
2022/05/20 11:58:06;;;;;;;5.60;3.55;;;25.50;69.20;;;;;;5016961;28;20135;-70
2022/05/20 12:00:35;;;;;;;7.45;3.85;;;25.90;71.10;;;;;;5015895;28;20060;-70
2022/05/20 12:03:13;;;;;;;5.47;3.45;;;25.80;70.90;;;;;;5015970;28;20060;-69
2022/05/20 12:05:41;;;;;;;5.75;2.65;;;26.00;69.40;;;;;;4981880;28;20046;-69
2022/05/20 12:08:07;;;;;;;7.32;3.13;;;25.90;70.70;;;;;;5000775;28;20131;-65
2022/05/20 12:10:46;;;;;;;5.45;2.65;;;26.10;70.70;;;;;;5088257;28;20382;-64
2022/05/20 12:13:19;;;;;;;8.50;3.80;;;26.10;69.50;;;;;;5072780;28;20045;-64
2022/05/20 12:16:13;;;;;;;8.48;4.32;;;26.30;69.10;;;;;;5074387;28;20041;-65
2022/05/20 12:24:43;;;;;;;7.57;4.30;;;25.80;67.00;;;;;;5053814;28;20040;-64
2022/05/20 12:27:11;;;;;;;6.63;4.40;;;25.70;68.80;;;;;;5072680;28;20040;-65
2022/05/20 12:29:37;;;;;;;8.43;5.03;;;25.90;69.00;;;;;;5084258;28;20165;-65
2022/05/20 12:32:23;;;;;;;7.38;5.10;;;25.70;68.50;;;;;;5073092;28;20083;-66
2022/05/20 12:35:25;;;;;;;7.63;5.10;;;26.00;69.40;;;;;;5074136;28;20048;-65
2022/05/20 12:37:52;;;;;;;7.93;5.43;;;25.50;67.30;;;;;;5029850;28;20054;-65
2022/05/20 12:40:39;;;;;;;9.88;4.72;;;25.60;68.60;;;;;;5014950;28;20048;-64
2022/05/20 12:43:06;;;;;;;7.18;4.20;;;25.50;68.40;;;;;;4958921;28;20149;-62
2022/05/20 12:45:48;;;;;;;5.93;3.80;;;25.70;68.30;;;;;;5003949;28;20096;-63
2022/05/20 12:48:16;;;;;;;6.22;3.53;;;25.70;66.70;;;;;;5011749;28;20053;-66
2022/05/20 12:50:42;;;;;;;6.00;3.55;;;25.30;67.80;;;;;;5014998;28;20042;-62
2022/05/20 12:53:08;;;;;;;6.63;3.70;;;25.60;67.80;;;;;;5031166;28;20533;-65
2022/05/20 12:55:39;;;;;;;6.38;4.10;;;25.50;67.90;;;;;;4997446;28;20053;-66
2022/05/20 12:58:06;;;;;;;6.00;4.20;;;25.50;67.80;;;;;;4981039;28;20052;-63
2022/05/20 13:00:34;;;;;;;6.15;4.30;;;25.50;67.80;;;;;;4994890;28;20141;-65
2022/05/20 13:03:04;;;;;;;6.82;5.13;;;25.50;68.00;;;;;;4963248;28;20050;-63
2022/05/20 13:05:50;;;;;;;6.93;4.70;;;25.70;68.10;;;;;;5004961;28;20084;-63
2022/05/20 13:08:20;;;;;;;7.05;5.13;;;25.40;66.50;;;;;;5000013;28;20423;-63
2022/05/20 13:10:45;;;;;;;7.28;5.53;;;25.60;68.30;;;;;;4998464;28;20058;-64
2022/05/20 13:13:13;;;;;;;7.43;5.35;;;25.40;67.80;;;;;;4994078;28;20050;-62
2022/05/20 13:15:45;;;;;;;9.43;5.90;;;25.50;68.40;;;;;;5072861;28;20127;-64
2022/05/20 13:18:28;;;;;;;7.88;5.60;;;25.40;67.10;;;;;;5087177;28;20375;-63
2022/05/20 13:20:59;;;;;;;6.93;4.97;;;25.30;68.80;;;;;;5040197;28;20048;-65
2022/05/20 13:23:36;;;;;;;8.57;5.30;;;25.10;68.70;;;;;;5042621;28;20490;-70
2022/05/20 13:26:02;;;;;;;6.65;4.25;;;25.20;68.90;;;;;;5042459;28;20116;-69
2022/05/20 13:28:31;;;;;;;7.40;4.80;;;25.20;68.60;;;;;;5058117;28;20045;-69
2022/05/20 13:31:04;;;;;;;5.72;3.55;;;25.10;68.60;;;;;;5059004;28;20071;-69
2022/05/20 13:33:30;;;;;;;6.47;4.18;;;25.40;68.60;;;;;;5075429;28;20109;-69